createdAt,value
2022-11-26T00:02:19.051Z,1.85
2022-11-26T00:04:47.272Z,0.65
2022-11-26T00:07:22.151Z,2.30
2022-11-26T00:09:50.561Z,2.05
2022-11-26T00:12:21.299Z,0.93
2022-11-26T00:14:51.110Z,1.35
2022-11-26T00:17:20.041Z,1.48
2022-11-26T00:19:49.910Z,1.00
2022-11-26T00:22:26.779Z,1.83
2022-11-26T00:24:55.763Z,2.45
2022-11-26T00:27:26.921Z,1.42
2022-11-26T00:29:56.845Z,1.10
2022-11-26T00:32:26.478Z,1.15
2022-11-26T00:34:55.136Z,0.45
2022-11-26T00:37:27.053Z,0.70
2022-11-26T00:39:55.947Z,2.60
2022-11-26T00:42:25.566Z,0.85
2022-11-26T00:44:53.655Z,1.92
2022-11-26T00:47:23.061Z,0.88
2022-11-26T00:49:51.163Z,0.50
2022-11-26T00:52:28.464Z,0.93
2022-11-26T00:54:56.662Z,1.00
2022-11-26T00:57:24.756Z,0.75
2022-11-26T00:59:54.820Z,1.23
2022-11-26T01:02:24.585Z,1.40
2022-11-26T01:04:52.847Z,0.63
2022-11-26T01:07:21.236Z,1.33
2022-11-26T01:09:50.527Z,0.73
2022-11-26T01:12:18.538Z,0.35
2022-11-26T01:14:46.746Z,1.23
2022-11-26T01:17:14.865Z,1.33
2022-11-26T01:19:44.425Z,0.75
2022-11-26T01:22:22.049Z,0.60
2022-11-26T01:24:50.296Z,1.20
2022-11-26T01:27:21.689Z,1.10
2022-11-26T01:29:49.845Z,0.52
2022-11-26T01:32:17.877Z,1.00
2022-11-26T01:34:47.425Z,0.90
2022-11-26T01:37:15.572Z,1.52
2022-11-26T01:39:43.727Z,2.15
2022-11-26T01:42:25.747Z,1.33
2022-11-26T01:44:54.005Z,0.55
2022-11-26T01:47:25.314Z,1.00
2022-11-26T01:50:31.128Z,1.40
2022-11-26T01:53:04.188Z,1.08
2022-11-26T01:55:37.019Z,1.00
2022-11-26T01:58:07.060Z,1.10
2022-11-26T02:00:35.416Z,1.02
2022-11-26T02:03:04.770Z,0.80
2022-11-26T02:05:39.556Z,1.75
2022-11-26T02:08:09.917Z,0.88
2022-11-26T02:10:38.189Z,1.45
2022-11-26T02:13:07.277Z,0.98
2022-11-26T02:15:42.790Z,0.45
2022-11-26T02:18:11.493Z,0.28
2022-11-26T02:20:52.466Z,1.15
2022-11-26T02:23:52.783Z,1.50
2022-11-26T02:27:01.279Z,1.52
2022-11-26T02:29:56.617Z,2.03
2022-11-26T02:32:33.194Z,2.45
2022-11-26T02:35:07.527Z,0.45
2022-11-26T02:37:38.937Z,1.33
2022-11-26T02:40:09.559Z,1.85
2022-11-26T02:42:38.024Z,0.73
2022-11-26T02:45:09.808Z,0.52
2022-11-26T02:47:40.679Z,0.50
2022-11-26T02:50:13.932Z,1.85
2022-11-26T02:52:43.432Z,0.22
2022-11-26T02:55:14.304Z,0.38
2022-11-26T02:57:46.516Z,1.73
2022-11-26T03:00:17.699Z,1.05
2022-11-26T03:02:49.905Z,0.95
2022-11-26T03:05:19.975Z,1.15
2022-11-26T03:07:50.374Z,0.63
2022-11-26T03:10:20.296Z,1.35
2022-11-26T03:12:48.768Z,1.00
2022-11-26T03:15:18.436Z,0.75
2022-11-26T03:17:46.485Z,0.45
2022-11-26T03:20:14.701Z,1.45
2022-11-26T03:22:42.806Z,0.82
2022-11-26T03:25:11.298Z,1.08
2022-11-26T03:27:39.324Z,1.67
2022-11-26T03:30:08.691Z,0.28
2022-11-26T03:32:38.438Z,1.88
2022-11-26T03:35:07.210Z,0.88
2022-11-26T03:37:35.289Z,0.73
2022-11-26T03:40:03.439Z,0.80
2022-11-26T03:42:31.496Z,0.55
2022-11-26T03:44:59.510Z,0.57
2022-11-26T03:47:27.921Z,0.32
2022-11-26T03:49:57.458Z,1.08
2022-11-26T03:52:25.568Z,0.70
2022-11-26T03:54:53.710Z,1.08
2022-11-26T03:57:22.187Z,0.50
2022-11-26T03:59:50.465Z,1.20
2022-11-26T04:02:18.606Z,1.88
2022-11-26T04:04:46.760Z,0.57
2022-11-26T04:07:16.603Z,0.45
2022-11-26T04:09:44.723Z,0.80
2022-11-26T04:12:12.805Z,1.33
2022-11-26T04:15:00.980Z,1.20
2022-11-26T04:17:49.019Z,0.50
2022-11-26T04:20:37.115Z,0.47
2022-11-26T04:23:26.631Z,0.60
2022-11-26T04:25:54.778Z,0.80
2022-11-26T04:28:22.825Z,0.68
2022-11-26T04:30:50.930Z,0.50
2022-11-26T04:33:18.945Z,1.30
2022-11-26T04:35:46.987Z,0.50
2022-11-26T04:38:15.212Z,0.75
2022-11-26T04:40:44.693Z,0.10
2022-11-26T04:43:12.793Z,0.70
2022-11-26T04:45:40.874Z,0.40
2022-11-26T04:48:08.944Z,1.30
2022-11-26T04:50:37.014Z,0.90
2022-11-26T04:53:05.204Z,0.57
2022-11-26T04:55:33.344Z,1.05
2022-11-26T04:58:02.739Z,1.63
2022-11-26T05:00:30.904Z,0.82
2022-11-26T05:02:59.031Z,0.52
2022-11-26T05:05:27.115Z,0.32
2022-11-26T05:07:55.188Z,1.45
2022-11-26T05:10:23.273Z,1.80
2022-11-26T05:12:51.432Z,1.63
2022-11-26T05:15:20.945Z,1.20
2022-11-26T05:17:48.953Z,0.75
2022-11-26T05:20:17.074Z,0.60
2022-11-26T05:22:45.107Z,0.52
2022-11-26T05:25:13.121Z,1.42
2022-11-26T05:27:41.179Z,0.90
2022-11-26T05:30:10.168Z,0.73
2022-11-26T05:32:39.635Z,1.13
2022-11-26T05:35:08.377Z,1.02
2022-11-26T05:37:36.403Z,2.15
2022-11-26T05:40:05.203Z,1.00
2022-11-26T05:42:33.297Z,0.93
2022-11-26T05:45:01.778Z,1.25
2022-11-26T05:47:29.778Z,0.57
2022-11-26T05:49:59.462Z,1.95
2022-11-26T05:52:27.492Z,0.60
2022-11-26T05:54:55.610Z,0.47
2022-11-26T05:57:23.704Z,1.13
2022-11-26T05:59:51.848Z,1.17
2022-11-26T06:02:20.160Z,1.10
2022-11-26T06:04:48.778Z,1.95
2022-11-26T06:07:18.577Z,0.77
2022-11-26T06:09:46.759Z,0.60
2022-11-26T06:12:14.853Z,1.30
2022-11-26T06:14:43.607Z,0.22
2022-11-26T06:17:11.858Z,1.00
2022-11-26T06:19:40.001Z,0.82
2022-11-26T06:22:08.593Z,0.93
2022-11-26T06:24:39.269Z,1.02
2022-11-26T06:27:07.512Z,1.02
2022-11-26T06:29:35.671Z,0.40
2022-11-26T06:32:03.740Z,0.55
2022-11-26T06:34:31.842Z,0.70
2022-11-26T06:36:59.955Z,0.75
2022-11-26T06:39:28.121Z,0.82
2022-11-26T06:41:57.538Z,1.20
2022-11-26T06:44:25.605Z,0.30
2022-11-26T06:46:53.680Z,1.42
2022-11-26T06:49:21.702Z,0.75
2022-11-26T06:51:49.706Z,1.63
2022-11-26T06:54:17.794Z,0.75
2022-11-26T06:56:45.809Z,0.57
2022-11-26T06:59:15.280Z,1.50
2022-11-26T07:01:43.297Z,1.15
2022-11-26T07:04:12.506Z,1.83
2022-11-26T07:06:40.900Z,0.77
2022-11-26T07:09:10.977Z,1.55
2022-11-26T07:11:40.540Z,0.73
2022-11-26T07:14:09.268Z,1.15
2022-11-26T07:16:38.828Z,0.47
2022-11-26T07:19:06.872Z,0.52
2022-11-26T07:21:35.037Z,0.88
2022-11-26T07:24:03.340Z,1.35
2022-11-26T07:26:31.457Z,0.85
2022-11-26T07:28:59.936Z,0.98
2022-11-26T07:31:28.108Z,1.27
2022-11-26T07:33:58.124Z,0.65
2022-11-26T07:36:28.152Z,2.22
2022-11-26T07:38:57.173Z,1.52
2022-11-26T07:41:26.286Z,1.15
2022-11-26T07:43:54.421Z,1.90
2022-11-26T07:46:23.920Z,1.45
2022-11-26T07:48:52.379Z,1.08
2022-11-26T07:51:23.970Z,1.02
2022-11-26T07:53:52.906Z,0.95
2022-11-26T07:56:21.252Z,0.50
2022-11-26T07:58:49.412Z,1.73
2022-11-26T08:01:19.427Z,1.67
2022-11-26T08:03:49.034Z,1.95
2022-11-26T08:06:19.018Z,1.58
2022-11-26T08:08:49.103Z,0.75
2022-11-26T08:11:18.945Z,0.95
2022-11-26T08:13:47.875Z,1.80
2022-11-26T08:16:16.820Z,0.60
2022-11-26T08:18:45.112Z,1.25
2022-11-26T08:21:13.237Z,0.50
2022-11-26T08:23:41.693Z,0.90
2022-11-26T08:26:34.567Z,0.50
2022-11-26T08:29:04.065Z,1.23
2022-11-26T08:31:35.014Z,0.85
2022-11-26T08:34:04.278Z,1.40
2022-11-26T08:36:33.259Z,0.93
2022-11-26T08:39:02.015Z,0.93
2022-11-26T08:41:31.516Z,1.67
2022-11-26T08:44:08.119Z,0.63
2022-11-26T08:46:37.003Z,0.60
2022-11-26T08:49:05.967Z,1.20
2022-11-26T08:51:34.320Z,2.25
2022-11-26T08:54:02.562Z,1.88
2022-11-26T08:56:32.083Z,1.83
2022-11-26T08:59:00.337Z,1.67
2022-11-26T09:01:30.330Z,0.73
2022-11-26T09:04:00.344Z,1.13
2022-11-26T09:06:31.020Z,1.98
2022-11-26T09:09:17.608Z,1.73
2022-11-26T09:11:56.881Z,2.03
2022-11-26T09:15:39.886Z,0.90
2022-11-26T09:18:08.092Z,2.75
2022-11-26T09:20:36.276Z,1.15
2022-11-26T09:23:07.901Z,1.48
2022-11-26T09:26:17.417Z,1.95
2022-11-26T09:28:47.280Z,1.25
2022-11-26T09:31:15.605Z,1.10
2022-11-26T09:33:44.308Z,1.23
2022-11-26T09:36:14.897Z,1.60
2022-11-26T09:38:43.542Z,1.50
2022-11-26T09:41:26.625Z,1.50
2022-11-26T09:47:55.924Z,1.42
2022-11-26T09:50:29.756Z,1.10
2022-11-26T09:53:03.197Z,1.90
2022-11-26T09:55:33.502Z,1.15
2022-11-26T09:58:12.117Z,1.85
2022-11-26T10:00:44.023Z,1.40
2022-11-26T10:03:20.396Z,0.60
2022-11-26T10:05:58.231Z,1.52
2022-11-26T10:09:01.016Z,1.77
2022-11-26T10:11:34.505Z,0.65
2022-11-26T10:14:11.275Z,0.95
2022-11-26T10:16:44.896Z,1.15
2022-11-26T10:19:21.772Z,2.10
2022-11-26T10:21:59.139Z,1.08
2022-11-26T10:24:31.138Z,1.40
2022-11-26T10:27:12.493Z,1.00
2022-11-26T10:29:43.996Z,1.42
2022-11-26T10:32:18.043Z,0.95
2022-11-26T10:34:52.364Z,1.20
2022-11-26T10:37:21.686Z,0.98
2022-11-26T10:39:55.219Z,0.98
2022-11-26T10:42:29.415Z,0.73
2022-11-26T10:44:59.145Z,1.75
2022-11-26T10:47:33.353Z,1.58
2022-11-26T10:50:47.552Z,1.60
2022-11-26T10:53:33.158Z,1.30
2022-11-26T10:56:28.971Z,1.13
2022-11-26T11:02:58.381Z,1.23
2022-11-26T11:05:43.384Z,1.02
2022-11-26T11:08:32.257Z,1.08
2022-11-26T11:11:02.916Z,1.02
2022-11-26T11:13:42.354Z,2.15
2022-11-26T11:16:15.031Z,1.58
2022-11-26T11:18:53.964Z,0.70
2022-11-26T11:21:29.278Z,1.77
2022-11-26T11:24:09.654Z,2.08
2022-11-26T11:26:46.299Z,2.65
2022-11-26T11:29:33.609Z,0.45
2022-11-26T11:32:04.633Z,1.20
2022-11-26T11:34:35.489Z,1.55
2022-11-26T11:37:11.676Z,1.48
2022-11-26T11:39:43.427Z,0.57
2022-11-26T11:42:22.098Z,0.85
2022-11-26T11:44:52.911Z,1.48
2022-11-26T11:47:37.682Z,1.48
2022-11-26T11:50:18.395Z,1.83
2022-11-26T11:52:57.353Z,1.23
2022-11-26T11:55:33.399Z,2.00
2022-11-26T11:58:15.601Z,0.70
2022-11-26T12:00:52.635Z,2.72
2022-11-26T12:03:46.125Z,0.70
2022-11-26T12:06:24.250Z,0.98
2022-11-26T12:09:03.986Z,0.70
2022-11-26T12:11:39.220Z,1.65
2022-11-26T12:14:16.576Z,0.75
2022-11-26T12:16:51.326Z,1.20
2022-11-26T12:19:28.620Z,2.25
2022-11-26T12:22:03.412Z,1.00
2022-11-26T12:24:40.608Z,1.08
2022-11-26T12:27:20.476Z,0.68
2022-11-26T12:29:53.856Z,1.92
2022-11-26T12:32:28.966Z,1.00
2022-11-26T12:35:02.385Z,1.58
2022-11-26T12:37:33.952Z,1.40
2022-11-26T12:40:07.553Z,1.02
2022-11-26T12:42:42.327Z,1.13
2022-11-26T12:45:20.195Z,1.05
2022-11-26T12:47:54.196Z,1.23
2022-11-26T12:50:29.187Z,1.15
2022-11-26T12:53:08.904Z,3.10
2022-11-26T12:55:47.274Z,0.45
2022-11-26T12:58:19.364Z,0.50
2022-11-26T13:00:49.741Z,1.02
2022-11-26T13:03:19.659Z,0.25
2022-11-26T13:05:56.140Z,0.50
2022-11-26T13:08:34.263Z,0.68
2022-11-26T13:11:19.913Z,2.03
2022-11-26T13:13:55.227Z,1.08
2022-11-26T13:16:29.969Z,1.10
2022-11-26T13:19:06.613Z,0.63
2022-11-26T13:22:04.883Z,1.48
2022-11-26T13:24:59.211Z,0.88
2022-11-26T13:27:45.544Z,0.52
2022-11-26T13:30:21.260Z,1.13
2022-11-26T13:33:21.417Z,0.70
2022-11-26T13:36:17.053Z,1.30
2022-11-26T13:38:57.728Z,2.03
2022-11-26T13:41:52.978Z,3.58
2022-11-26T13:45:01.797Z,1.77
2022-11-26T13:47:35.748Z,2.00
2022-11-26T13:50:09.070Z,2.05
2022-11-26T13:52:40.856Z,0.55
2022-11-26T13:55:16.933Z,2.40
2022-11-26T13:57:48.507Z,0.93
2022-11-26T14:00:27.416Z,2.15
2022-11-26T14:02:55.970Z,1.17
2022-11-26T14:05:24.428Z,0.63
2022-11-26T14:07:52.585Z,1.75
2022-11-26T14:10:44.823Z,0.95
2022-11-26T14:13:17.544Z,0.60
2022-11-26T14:15:55.395Z,0.75
2022-11-26T14:19:03.087Z,0.20
2022-11-26T14:21:31.670Z,0.75
2022-11-26T14:24:01.582Z,0.55
2022-11-26T14:26:34.623Z,0.28
2022-11-26T14:29:13.064Z,0.10
2022-11-26T14:31:49.841Z,0.22
2022-11-26T14:34:25.545Z,0.65
2022-11-26T14:36:56.676Z,0.30
2022-11-26T14:39:25.664Z,1.02
2022-11-26T14:41:58.934Z,0.77
2022-11-26T14:44:30.133Z,0.80
2022-11-26T14:47:01.982Z,0.55
2022-11-26T14:49:35.729Z,0.15
2022-11-26T14:52:07.241Z,1.35
2022-11-26T14:54:40.284Z,0.52
2022-11-26T14:57:15.946Z,0.35
2022-11-26T14:59:57.158Z,0.30
2022-11-26T15:02:28.922Z,0.50
2022-11-26T15:05:02.248Z,0.60
2022-11-26T15:07:32.365Z,0.75
2022-11-26T15:10:02.602Z,0.35
2022-11-26T15:12:31.477Z,0.20
2022-11-26T15:15:01.519Z,0.13
2022-11-26T15:17:33.561Z,0.25
2022-11-26T15:20:05.435Z,1.75
2022-11-26T15:22:38.213Z,0.77
2022-11-26T15:25:13.374Z,0.20
2022-11-26T15:27:51.917Z,0.75
2022-11-26T15:30:22.537Z,1.00
2022-11-26T15:32:58.564Z,0.20
2022-11-26T15:35:26.893Z,2.63
2022-11-26T15:37:54.992Z,4.53
2022-11-26T15:40:31.457Z,1.35
2022-11-26T15:43:03.556Z,0.50
2022-11-26T15:45:37.055Z,0.73
2022-11-26T15:48:07.965Z,0.25
2022-11-26T15:50:38.468Z,0.68
2022-11-26T15:53:14.963Z,0.43
2022-11-26T15:55:47.274Z,0.82
2022-11-26T15:58:22.427Z,0.75
2022-11-26T16:00:54.545Z,0.47
2022-11-26T16:03:45.461Z,1.42
2022-11-26T16:06:38.063Z,1.80
2022-11-26T16:09:27.692Z,0.32
2022-11-26T16:12:01.327Z,0.43
2022-11-26T16:14:34.572Z,2.10
2022-11-26T16:17:08.564Z,1.13
2022-11-26T16:19:48.634Z,0.77
2022-11-26T16:22:20.847Z,0.15
2022-11-26T16:25:02.609Z,0.50
2022-11-26T16:27:32.164Z,0.68
2022-11-26T16:30:02.389Z,1.48
2022-11-26T16:32:30.541Z,0.50
2022-11-26T16:35:12.241Z,0.75
2022-11-26T16:37:48.045Z,0.98
2022-11-26T16:40:19.008Z,0.40
2022-11-26T16:42:47.677Z,0.15
2022-11-26T16:45:16.435Z,0.93
2022-11-26T16:47:46.873Z,2.22
2022-11-26T16:50:20.290Z,4.57
2022-11-26T16:52:48.677Z,3.78
2022-11-26T16:55:19.180Z,2.63
2022-11-26T16:57:51.131Z,5.53
2022-11-26T17:00:22.015Z,4.18
2022-11-26T17:02:50.599Z,1.88
2022-11-26T17:05:21.117Z,2.90
2022-11-26T17:07:51.000Z,2.67
2022-11-26T17:10:23.405Z,2.45
2022-11-26T17:12:51.607Z,3.97
2022-11-26T17:15:19.973Z,3.70
2022-11-26T17:17:47.985Z,3.92
2022-11-26T17:20:18.168Z,5.20
2022-11-26T17:22:47.541Z,3.88
2022-11-26T17:25:16.265Z,3.38
2022-11-26T17:27:44.525Z,2.20
2022-11-26T17:30:17.509Z,3.05
2022-11-26T17:32:45.745Z,2.03
2022-11-26T17:35:14.044Z,2.53
2022-11-26T17:37:43.391Z,2.07
2022-11-26T17:40:17.963Z,2.92
2022-11-26T17:42:46.454Z,1.60
2022-11-26T17:45:15.350Z,1.33
2022-11-26T17:47:43.673Z,3.17
2022-11-26T17:50:16.326Z,2.38
2022-11-26T17:52:44.559Z,3.43
2022-11-26T17:55:15.097Z,2.90
2022-11-26T17:57:43.198Z,2.35
2022-11-26T18:00:15.218Z,2.45
2022-11-26T18:02:43.761Z,2.87
2022-11-26T18:05:11.976Z,5.43
2022-11-26T18:07:40.532Z,5.00
2022-11-26T18:10:11.819Z,4.27
2022-11-26T18:12:42.073Z,3.20
2022-11-26T18:15:17.148Z,2.30
2022-11-26T18:17:48.299Z,2.73
2022-11-26T18:20:18.265Z,4.70
2022-11-26T18:22:46.771Z,2.80
2022-11-26T18:25:15.190Z,2.47
2022-11-26T18:27:44.739Z,2.95
2022-11-26T18:30:13.303Z,1.98
2022-11-26T18:32:41.611Z,3.87
2022-11-26T18:35:10.983Z,4.70
2022-11-26T18:37:40.585Z,2.43
2022-11-26T18:40:11.335Z,3.40
2022-11-26T18:42:39.389Z,2.72
2022-11-26T18:45:11.496Z,3.33
2022-11-26T18:47:39.743Z,2.50
2022-11-26T18:50:09.099Z,2.53
2022-11-26T18:52:37.510Z,2.93
2022-11-26T18:55:08.118Z,3.77
2022-11-26T18:57:36.310Z,3.47
2022-11-26T19:00:06.934Z,2.70
2022-11-26T19:02:36.827Z,3.92
2022-11-26T19:05:06.353Z,2.45
2022-11-26T19:07:34.792Z,2.13
2022-11-26T19:10:02.868Z,4.55
2022-11-26T19:12:30.819Z,3.80
2022-11-26T19:14:58.812Z,5.85
2022-11-26T19:17:26.920Z,4.82
2022-11-26T19:19:56.374Z,4.00
2022-11-26T19:22:24.352Z,1.80
2022-11-26T19:24:52.365Z,3.00
2022-11-26T19:27:20.439Z,2.45
2022-11-26T19:29:48.637Z,1.83
2022-11-26T19:32:16.661Z,0.60
2022-11-26T19:34:44.645Z,1.63
2022-11-26T19:37:14.052Z,2.53
2022-11-26T19:39:42.634Z,3.28
2022-11-26T19:42:11.023Z,2.53
2022-11-26T19:44:39.112Z,3.00
2022-11-26T19:47:07.132Z,3.27
2022-11-26T19:49:35.993Z,2.53
2022-11-26T19:52:04.098Z,2.37
2022-11-26T19:54:33.538Z,2.60
2022-11-26T19:57:01.688Z,3.65
2022-11-26T19:59:29.882Z,1.20
2022-11-26T20:01:58.034Z,2.97
2022-11-26T20:04:27.574Z,1.67
2022-11-26T20:06:55.642Z,2.87
2022-11-26T20:09:24.271Z,0.70
2022-11-26T20:11:53.821Z,2.83
2022-11-26T20:14:21.835Z,3.95
2022-11-26T20:16:49.869Z,4.33
2022-11-26T20:19:18.041Z,4.13
2022-11-26T20:21:46.038Z,2.40
2022-11-26T20:24:17.226Z,3.03
2022-11-26T20:26:48.532Z,3.77
2022-11-26T20:29:18.751Z,4.30
2022-11-26T20:31:49.148Z,3.23
2022-11-26T20:34:18.653Z,4.27
2022-11-26T20:36:46.977Z,2.83
2022-11-26T20:39:16.310Z,2.00
2022-11-26T20:41:44.812Z,2.83
2022-11-26T20:44:13.215Z,3.17
2022-11-26T20:46:43.368Z,1.60
2022-11-26T20:49:12.055Z,2.30
2022-11-26T20:51:40.270Z,3.13
2022-11-26T20:54:08.202Z,2.33
2022-11-26T20:56:36.191Z,2.20
2022-11-26T20:59:04.569Z,2.33
2022-11-26T21:01:32.933Z,2.43
2022-11-26T21:04:02.578Z,2.30
2022-11-26T21:06:31.525Z,3.27
2022-11-26T21:09:01.624Z,3.37
2022-11-26T21:11:30.355Z,2.67
2022-11-26T21:13:59.660Z,2.93
2022-11-26T21:16:28.299Z,1.37
2022-11-26T21:18:56.541Z,2.20
2022-11-26T21:21:28.622Z,2.43
2022-11-26T21:23:57.752Z,1.77
2022-11-26T21:26:26.965Z,2.33
2022-11-26T21:28:57.072Z,1.27
2022-11-26T21:31:25.989Z,1.63
2022-11-26T21:33:58.973Z,3.03
2022-11-26T21:36:29.240Z,2.27
2022-11-26T21:38:57.306Z,2.20
2022-11-26T21:41:25.872Z,3.20
2022-11-26T21:43:54.134Z,1.10
2022-11-26T21:46:24.029Z,1.00
2022-11-26T21:48:53.238Z,1.97
2022-11-26T21:51:22.068Z,1.23
2022-11-26T21:53:51.755Z,1.57
2022-11-26T21:56:21.396Z,1.90
2022-11-26T21:58:50.702Z,1.53
2022-11-26T22:01:21.528Z,0.87
2022-11-26T22:03:51.210Z,1.83
2022-11-26T22:06:21.461Z,0.77
2022-11-26T22:08:51.614Z,0.60
2022-11-26T22:11:21.375Z,1.33
2022-11-26T22:13:49.839Z,0.80
2022-11-26T22:16:20.347Z,1.47
2022-11-26T22:18:49.809Z,1.23
2022-11-26T22:21:20.698Z,1.10
2022-11-26T22:23:49.730Z,0.93
2022-11-26T22:26:19.710Z,0.80
2022-11-26T22:28:49.658Z,0.60
2022-11-26T22:31:20.554Z,1.17
2022-11-26T22:33:49.548Z,0.40
2022-11-26T22:36:17.654Z,1.83
2022-11-26T22:38:45.675Z,1.13
2022-11-26T22:41:15.587Z,0.60
2022-11-26T22:43:45.027Z,0.60
2022-11-26T22:46:14.798Z,0.30
2022-11-26T22:48:43.770Z,0.47
2022-11-26T22:51:11.887Z,1.43
2022-11-26T22:53:39.857Z,0.87
2022-11-26T22:56:08.640Z,0.60
2022-11-26T22:58:36.830Z,0.70
2022-11-26T23:01:09.880Z,0.57
2022-11-26T23:03:39.041Z,0.27
2022-11-26T23:06:09.613Z,0.27
2022-11-26T23:08:38.754Z,0.67
2022-11-26T23:11:08.115Z,0.43
2022-11-26T23:13:36.214Z,1.07
2022-11-26T23:16:07.401Z,0.37
2022-11-26T23:18:37.603Z,0.60
2022-11-26T23:21:07.498Z,1.33
2022-11-26T23:23:35.567Z,0.57
2022-11-26T23:26:04.322Z,0.87
2022-11-26T23:28:32.997Z,0.57
2022-11-26T23:31:02.629Z,0.23
2022-11-26T23:33:30.995Z,0.73
2022-11-26T23:36:00.518Z,0.53
2022-11-26T23:38:28.524Z,0.63
2022-11-26T23:40:57.742Z,1.03
2022-11-26T23:43:27.068Z,0.40
2022-11-26T23:46:01.788Z,0.47
2022-11-26T23:48:30.000Z,0.77
2022-11-26T23:50:58.202Z,0.30
2022-11-26T23:53:28.331Z,0.37
2022-11-26T23:56:02.550Z,0.70
2022-11-26T23:58:30.820Z,0.20
